createdAt,value
2023-04-08T00:03:12.556Z,99074.99
2023-04-08T00:06:24.550Z,99078.47
2023-04-08T00:09:36.518Z,99071.52
2023-04-08T00:12:48.736Z,99081.15
2023-04-08T00:16:01.096Z,99082.95
2023-04-08T00:19:13.167Z,99087.43
2023-04-08T00:22:26.107Z,99083.44
2023-04-08T00:25:38.439Z,99085.55
2023-04-08T00:28:50.759Z,99082.92
2023-04-08T00:32:03.488Z,99087.68
2023-04-08T00:35:16.215Z,99090.20
2023-04-08T00:38:28.475Z,99099.73
2023-04-08T00:41:41.501Z,99093.83
2023-04-08T00:44:53.716Z,99092.30
2023-04-08T00:48:06.017Z,99096.00
2023-04-08T00:51:18.216Z,99096.09
2023-04-08T00:54:30.732Z,99111.05
2023-04-08T00:57:43.098Z,99109.34
2023-04-08T01:00:59.965Z,99113.05
2023-04-08T01:04:21.378Z,99109.84
2023-04-08T01:07:38.218Z,99107.55
2023-04-08T01:10:54.429Z,99112.88
2023-04-08T01:14:12.085Z,99112.19
2023-04-08T01:17:28.242Z,99122.34
2023-04-08T01:20:41.734Z,99116.93
2023-04-08T01:24:04.912Z,99116.48
2023-04-08T01:27:19.542Z,99116.58
2023-04-08T01:30:34.664Z,99122.66
2023-04-08T01:33:47.411Z,99117.57
2023-04-08T01:37:01.603Z,99118.74
2023-04-08T01:40:17.086Z,99114.05
2023-04-08T01:43:32.473Z,99123.80
2023-04-08T01:46:45.448Z,99123.03
2023-04-08T01:49:59.021Z,99116.72
2023-04-08T01:53:12.268Z,99124.83
2023-04-08T01:56:26.959Z,99124.13
2023-04-08T01:59:42.238Z,99130.06
2023-04-08T02:02:55.814Z,99124.13
2023-04-08T02:06:08.248Z,99130.52
2023-04-08T02:09:20.158Z,99126.32
2023-04-08T02:12:33.426Z,99130.16
2023-04-08T02:15:50.894Z,99133.54
2023-04-08T02:19:06.131Z,99141.67
2023-04-08T02:22:24.671Z,99146.85
2023-04-08T02:25:40.451Z,99147.33
2023-04-08T02:28:55.120Z,99147.02
2023-04-08T02:32:10.370Z,99144.41
2023-04-08T02:35:24.539Z,99140.80
2023-04-08T02:38:36.632Z,99149.33
2023-04-08T02:41:48.534Z,99140.23
2023-04-08T02:45:00.820Z,99147.56
2023-04-08T02:48:13.725Z,99146.85
2023-04-08T02:51:26.486Z,99148.08
2023-04-08T02:54:38.636Z,99146.00
2023-04-08T02:57:51.457Z,99155.63
2023-04-08T03:01:03.628Z,99162.56
2023-04-08T03:04:15.748Z,99152.15
2023-04-08T03:07:27.620Z,99163.47
2023-04-08T03:10:39.610Z,99173.50
2023-04-08T03:13:51.622Z,99163.93
2023-04-08T03:17:03.686Z,99163.47
2023-04-08T03:20:17.787Z,99164.10
2023-04-08T03:23:30.022Z,99168.26
2023-04-08T03:26:42.094Z,99164.47
2023-04-08T03:29:54.139Z,99168.11
2023-04-08T03:33:08.263Z,99167.48
2023-04-08T03:36:20.697Z,99179.74
2023-04-08T03:39:32.821Z,99186.88
2023-04-08T03:42:44.736Z,99181.50
2023-04-08T03:45:59.604Z,99181.95
2023-04-08T03:49:11.693Z,99186.66
2023-04-08T03:52:23.686Z,99187.44
2023-04-08T03:55:35.630Z,99191.17
2023-04-08T03:58:47.933Z,99185.59
2023-04-08T04:02:00.277Z,99193.19
2023-04-08T04:05:13.548Z,99201.98
2023-04-08T04:08:25.546Z,99200.73
2023-04-08T04:11:37.623Z,99203.60
2023-04-08T04:14:49.417Z,99206.14
2023-04-08T04:18:01.424Z,99218.23
2023-04-08T04:21:14.563Z,99228.62
2023-04-08T04:24:26.728Z,99232.86
2023-04-08T04:27:38.770Z,99220.20
2023-04-08T04:30:50.801Z,99222.77
2023-04-08T04:34:03.100Z,99233.08
2023-04-08T04:37:15.037Z,99231.23
2023-04-08T04:40:27.286Z,99242.17
2023-04-08T04:43:39.462Z,99237.48
2023-04-08T04:46:52.998Z,99239.10
2023-04-08T04:50:05.191Z,99246.02
2023-04-08T04:53:17.339Z,99254.64
2023-04-08T04:56:29.682Z,99252.80
2023-04-08T04:59:41.925Z,99250.95
2023-04-08T05:02:54.206Z,99257.72
2023-04-08T05:06:06.314Z,99252.20
2023-04-08T05:09:18.222Z,99254.33
2023-04-08T05:12:30.220Z,99259.17
2023-04-08T05:15:42.153Z,99268.11
2023-04-08T05:18:54.161Z,99270.20
2023-04-08T05:22:06.133Z,99268.72
2023-04-08T05:25:19.213Z,99275.27
2023-04-08T05:28:31.107Z,99276.20
2023-04-08T05:31:43.029Z,99275.89
2023-04-08T05:34:55.094Z,99283.36
2023-04-08T05:38:07.729Z,99270.16
2023-04-08T05:41:19.807Z,99285.48
2023-04-08T05:44:31.703Z,99281.55
2023-04-08T05:47:43.615Z,99289.72
2023-04-08T05:50:55.742Z,99285.06
2023-04-08T05:54:08.015Z,99290.89
2023-04-08T05:57:20.970Z,99294.81
2023-04-08T06:00:33.166Z,99305.92
2023-04-08T06:03:45.584Z,99309.38
2023-04-08T06:06:59.856Z,99318.00
2023-04-08T06:10:14.634Z,99324.96
2023-04-08T06:13:27.159Z,99327.41
2023-04-08T06:16:39.168Z,99335.13
2023-04-08T06:19:51.185Z,99333.33
2023-04-08T06:23:03.083Z,99345.44
2023-04-08T06:26:15.309Z,99339.02
2023-04-08T06:29:29.890Z,99338.89
2023-04-08T06:32:41.725Z,99345.23
2023-04-08T06:35:53.757Z,99342.95
2023-04-08T06:39:05.861Z,99346.86
2023-04-08T06:42:17.903Z,99349.48
2023-04-08T06:45:32.815Z,99351.44
2023-04-08T06:48:44.765Z,99351.77
2023-04-08T06:51:57.207Z,99345.52
2023-04-08T06:55:09.837Z,99346.61
2023-04-08T06:58:21.908Z,99355.83
2023-04-08T07:01:34.023Z,99351.76
2023-04-08T07:04:47.001Z,99350.50
2023-04-08T07:07:59.064Z,99352.81
2023-04-08T07:11:11.396Z,99352.05
2023-04-08T07:14:23.521Z,99346.39
2023-04-08T07:17:35.487Z,99344.36
2023-04-08T07:20:47.516Z,99346.45
2023-04-08T07:23:59.375Z,99354.67
2023-04-08T07:27:11.717Z,99344.69
2023-04-08T07:30:23.886Z,99358.74
2023-04-08T07:33:36.273Z,99378.05
2023-04-08T07:36:48.331Z,99375.31
2023-04-08T07:40:00.978Z,99372.41
2023-04-08T07:43:14.695Z,99373.15
2023-04-08T07:46:27.508Z,99364.29
2023-04-08T07:49:41.682Z,99371.27
2023-04-08T07:52:54.414Z,99375.03
2023-04-08T07:56:07.742Z,99374.27
2023-04-08T07:59:22.278Z,99373.52
2023-04-08T08:02:34.442Z,99383.69
2023-04-08T08:05:47.166Z,99379.27
2023-04-08T08:09:08.255Z,99377.72
2023-04-08T08:12:23.932Z,99375.38
2023-04-08T08:15:37.094Z,99379.66
2023-04-08T08:18:49.218Z,99369.05
2023-04-08T08:22:03.561Z,99374.99
2023-04-08T08:25:16.939Z,99378.23
2023-04-08T08:28:29.498Z,99373.38
2023-04-08T08:31:42.234Z,99379.77
2023-04-08T08:34:54.331Z,99369.47
2023-04-08T08:38:06.532Z,99373.42
2023-04-08T08:41:18.571Z,99376.00
2023-04-08T08:44:30.586Z,99380.02
2023-04-08T08:47:42.760Z,99380.95
2023-04-08T08:50:55.155Z,99383.05
2023-04-08T08:54:09.810Z,99378.23
2023-04-08T08:57:28.503Z,99385.11
2023-04-08T09:00:42.532Z,99384.80
2023-04-08T09:03:58.697Z,99373.55
2023-04-08T09:07:19.946Z,99380.02
2023-04-08T09:10:36.552Z,99383.59
2023-04-08T09:13:49.612Z,99386.23
2023-04-08T09:17:01.824Z,99385.84
2023-04-08T09:20:17.778Z,99387.89
2023-04-08T09:23:29.842Z,99394.82
2023-04-08T09:26:42.482Z,99391.46
2023-04-08T09:29:54.392Z,99387.09
2023-04-08T09:33:07.543Z,99390.09
2023-04-08T09:36:20.386Z,99401.47
2023-04-08T09:39:32.472Z,99402.20
2023-04-08T09:42:53.741Z,99396.05
2023-04-08T09:46:10.686Z,99402.64
2023-04-08T09:49:23.341Z,99391.85
2023-04-08T09:52:41.734Z,99402.59
2023-04-08T09:55:58.006Z,99397.83
2023-04-08T09:59:17.616Z,99407.34
2023-04-08T10:02:35.371Z,99412.73
2023-04-08T10:05:49.830Z,99415.38
2023-04-08T10:09:03.212Z,99418.42
2023-04-08T10:12:16.349Z,99425.83
2023-04-08T10:15:34.545Z,99421.21
2023-04-08T10:18:46.904Z,99424.00
2023-04-08T10:21:58.985Z,99424.29
2023-04-08T10:25:38.065Z,99420.64
2023-04-08T10:28:50.204Z,99415.63
2023-04-08T10:32:03.144Z,99418.33
2023-04-08T10:35:15.580Z,99417.58
2023-04-08T10:38:28.007Z,99434.38
2023-04-08T10:41:39.976Z,99428.36
2023-04-08T10:44:53.832Z,99430.92
2023-04-08T10:48:23.226Z,99438.27
2023-04-08T10:51:38.504Z,99439.30
2023-04-08T10:54:54.153Z,99438.19
2023-04-08T10:58:13.792Z,99436.69
2023-04-08T11:01:26.615Z,99431.34
2023-04-08T11:04:38.722Z,99429.14
2023-04-08T11:07:51.390Z,99431.73
2023-04-08T11:11:05.702Z,99425.97
2023-04-08T11:14:20.486Z,99429.92
2023-04-08T11:17:32.935Z,99433.97
2023-04-08T11:20:45.606Z,99429.94
2023-04-08T11:23:58.798Z,99433.78
2023-04-08T11:27:11.404Z,99432.48
2023-04-08T11:30:24.289Z,99437.93
2023-04-08T11:33:39.157Z,99439.91
2023-04-08T11:36:52.838Z,99441.70
2023-04-08T11:40:05.007Z,99448.02
2023-04-08T11:43:20.463Z,99439.16
2023-04-08T11:46:32.836Z,99441.14
2023-04-08T11:49:54.436Z,99436.78
2023-04-08T11:53:06.837Z,99435.47
2023-04-08T11:56:27.544Z,99421.66
2023-04-08T11:59:40.081Z,99426.34
2023-04-08T12:02:52.908Z,99429.09
2023-04-08T12:06:05.618Z,99432.27
2023-04-08T12:09:17.805Z,99420.48
2023-04-08T12:12:30.184Z,99415.44
2023-04-08T12:15:42.360Z,99426.24
2023-04-08T12:18:54.809Z,99418.83
2023-04-08T12:22:06.963Z,99413.02
2023-04-08T12:25:19.485Z,99418.66
2023-04-08T12:28:31.863Z,99426.34
2023-04-08T12:31:44.137Z,99421.44
2023-04-08T12:34:56.590Z,99427.28
2023-04-08T12:38:08.695Z,99421.83
2023-04-08T12:41:21.967Z,99420.13
2023-04-08T12:44:34.235Z,99420.98
2023-04-08T12:47:48.025Z,99415.96
2023-04-08T12:51:00.630Z,99418.95
2023-04-08T12:54:13.351Z,99415.49
2023-04-08T12:57:25.576Z,99422.80
2023-04-08T13:00:38.087Z,99420.27
2023-04-08T13:03:50.692Z,99414.67
2023-04-08T13:07:04.621Z,99412.53
2023-04-08T13:10:17.865Z,99412.64
2023-04-08T13:13:30.390Z,99413.50
2023-04-08T13:16:42.623Z,99411.21
2023-04-08T13:19:54.785Z,99405.83
2023-04-08T13:23:07.298Z,99405.19
2023-04-08T13:26:19.568Z,99417.63
2023-04-08T13:29:31.935Z,99414.99
2023-04-08T13:32:44.233Z,99412.25
2023-04-08T13:35:56.953Z,99401.35
2023-04-08T13:39:09.370Z,99406.92
2023-04-08T13:42:21.608Z,99400.33
2023-04-08T13:45:34.038Z,99395.41
2023-04-08T13:48:47.107Z,99395.41
2023-04-08T13:51:59.249Z,99399.02
2023-04-08T13:55:12.813Z,99401.98
2023-04-08T13:58:26.070Z,99397.22
2023-04-08T14:01:40.814Z,99393.31
2023-04-08T14:04:53.980Z,99402.17
2023-04-08T14:08:06.309Z,99391.21
2023-04-08T14:11:18.429Z,99397.13
2023-04-08T14:14:30.629Z,99395.75
2023-04-08T14:17:42.898Z,99396.38
2023-04-08T14:20:54.930Z,99394.78
2023-04-08T14:24:07.205Z,99382.74
2023-04-08T14:27:19.496Z,99386.46
2023-04-08T14:30:32.053Z,99390.78
2023-04-08T14:33:44.205Z,99383.17
2023-04-08T14:36:56.520Z,99392.04
2023-04-08T14:40:09.203Z,99399.84
2023-04-08T14:43:21.358Z,99399.84
2023-04-08T14:46:33.949Z,99397.95
2023-04-08T14:49:46.383Z,99399.66
2023-04-08T14:52:58.905Z,99392.66
2023-04-08T14:56:12.093Z,99395.23
2023-04-08T14:59:24.345Z,99406.84
2023-04-08T15:02:36.531Z,99406.30
2023-04-08T15:05:49.041Z,99401.55
2023-04-08T15:09:01.466Z,99403.66
2023-04-08T15:12:13.937Z,99397.55
2023-04-08T15:15:26.060Z,99400.59
2023-04-08T15:18:38.302Z,99403.66
2023-04-08T15:21:50.825Z,99396.07
2023-04-08T15:25:05.220Z,99396.70
2023-04-08T15:28:17.677Z,99396.47
2023-04-08T15:31:29.930Z,99397.75
2023-04-08T15:37:42.720Z,99396.70
2023-04-08T15:40:55.102Z,99390.14
2023-04-08T15:44:07.387Z,99394.56
2023-04-08T15:47:19.598Z,99393.75
2023-04-08T15:50:34.394Z,99408.32
2023-04-08T15:53:47.085Z,99396.27
2023-04-08T15:56:59.155Z,99399.03
2023-04-08T16:00:18.550Z,99397.55
2023-04-08T16:03:30.986Z,99405.47
2023-04-08T16:06:44.546Z,99402.17
2023-04-08T16:09:57.648Z,99406.01
2023-04-08T16:13:09.965Z,99400.18
2023-04-08T16:16:22.313Z,99405.88
2023-04-08T16:19:35.676Z,99405.99
2023-04-08T16:22:48.093Z,99401.45
2023-04-08T16:26:00.494Z,99409.38
2023-04-08T16:29:12.698Z,99404.95
2023-04-08T16:32:24.993Z,99406.63
2023-04-08T16:35:37.333Z,99409.48
2023-04-08T16:38:49.728Z,99410.42
2023-04-08T16:42:02.250Z,99406.41
2023-04-08T16:45:16.973Z,99416.53
2023-04-08T16:48:29.147Z,99412.41
2023-04-08T16:51:41.412Z,99424.86
2023-04-08T16:54:53.791Z,99421.59
2023-04-08T16:58:06.356Z,99422.55
2023-04-08T17:01:21.171Z,99423.70
2023-04-08T17:04:34.967Z,99430.02
2023-04-08T17:07:47.269Z,99434.67
2023-04-08T17:10:59.634Z,99437.94
2023-04-08T17:14:11.912Z,99436.64
2023-04-08T17:17:24.468Z,99433.59
2023-04-08T17:20:37.731Z,99447.59
2023-04-08T17:23:50.371Z,99444.22
2023-04-08T17:27:02.841Z,99446.33
2023-04-08T17:30:17.729Z,99457.17
2023-04-08T17:33:30.502Z,99454.64
2023-04-08T17:36:42.827Z,99465.41
2023-04-08T17:39:55.149Z,99458.64
2023-04-08T17:43:07.491Z,99467.19
2023-04-08T17:46:19.785Z,99468.87
2023-04-08T17:49:33.311Z,99475.96
2023-04-08T17:52:48.486Z,99475.96
2023-04-08T17:56:01.051Z,99479.52
2023-04-08T17:59:13.576Z,99474.47
2023-04-08T18:02:27.800Z,99475.28
2023-04-08T18:05:41.053Z,99477.17
2023-04-08T18:08:53.353Z,99477.39
2023-04-08T18:12:06.617Z,99493.61
2023-04-08T18:15:19.991Z,99493.99
2023-04-08T18:18:32.457Z,99499.66
2023-04-08T18:21:44.745Z,99500.69
2023-04-08T18:24:57.098Z,99501.65
2023-04-08T18:28:09.407Z,99498.63
2023-04-08T18:31:21.901Z,99506.33
2023-04-08T18:34:34.312Z,99512.56
2023-04-08T18:37:46.408Z,99508.03
2023-04-08T18:40:58.600Z,99507.28
2023-04-08T18:44:10.967Z,99509.17
2023-04-08T18:47:23.313Z,99510.41
2023-04-08T18:50:35.806Z,99506.92
2023-04-08T18:53:48.586Z,99518.01
2023-04-08T18:57:01.282Z,99515.20
2023-04-08T19:00:17.573Z,99526.28
2023-04-08T19:03:30.264Z,99515.73
2023-04-08T19:06:42.841Z,99512.56
2023-04-08T19:09:55.144Z,99509.17
2023-04-08T19:13:07.350Z,99521.50
2023-04-08T19:16:19.506Z,99516.33
2023-04-08T19:19:32.866Z,99522.74
2023-04-08T19:22:45.162Z,99527.27
2023-04-08T19:25:57.403Z,99525.28
2023-04-08T19:29:09.821Z,99525.11
2023-04-08T19:32:21.908Z,99523.41
2023-04-08T19:35:34.265Z,99512.20
2023-04-08T19:38:46.585Z,99510.50
2023-04-08T19:41:58.634Z,99513.34
2023-04-08T19:45:12.655Z,99518.61
2023-04-08T19:48:25.089Z,99515.98
2023-04-08T19:51:37.222Z,99513.34
2023-04-08T19:54:49.349Z,99512.48
2023-04-08T19:58:01.781Z,99520.39
2023-04-08T20:01:14.389Z,99524.81
2023-04-08T20:04:26.751Z,99515.23
2023-04-08T20:07:38.962Z,99526.22
2023-04-08T20:10:51.213Z,99527.23
2023-04-08T20:14:03.609Z,99534.59
2023-04-08T20:17:16.651Z,99522.34
2023-04-08T20:20:30.165Z,99524.23
2023-04-08T20:23:44.582Z,99523.47
2023-04-08T20:26:56.843Z,99520.36
2023-04-08T20:30:10.543Z,99512.83
2023-04-08T20:33:23.266Z,99512.92
2023-04-08T20:36:35.616Z,99513.13
2023-04-08T20:39:48.849Z,99514.91
2023-04-08T20:43:01.263Z,99516.03
2023-04-08T20:46:13.678Z,99508.59
2023-04-08T20:49:26.070Z,99517.52
2023-04-08T20:52:38.844Z,99514.39
2023-04-08T20:55:51.262Z,99521.64
2023-04-08T20:59:03.329Z,99519.11
2023-04-08T21:02:16.231Z,99514.00
2023-04-08T21:05:28.720Z,99514.77
2023-04-08T21:08:41.042Z,99520.36
2023-04-08T21:11:53.073Z,99514.72
2023-04-08T21:15:05.087Z,99515.55
2023-04-08T21:18:17.228Z,99518.38
2023-04-08T21:21:29.471Z,99517.03
2023-04-08T21:24:41.488Z,99526.73
2023-04-08T21:27:53.580Z,99528.25
2023-04-08T21:31:15.014Z,99522.59
2023-04-08T21:34:27.563Z,99526.16
2023-04-08T21:37:39.650Z,99522.86
2023-04-08T21:40:51.773Z,99520.33
2023-04-08T21:44:03.962Z,99525.75
2023-04-08T21:47:16.073Z,99532.63
2023-04-08T21:50:28.727Z,99532.53
2023-04-08T21:53:40.865Z,99529.34
2023-04-08T21:56:52.863Z,99524.17
2023-04-08T22:00:06.933Z,99519.92
2023-04-08T22:03:20.987Z,99516.44
2023-04-08T22:06:33.112Z,99518.51
2023-04-08T22:09:45.356Z,99520.95
2023-04-08T22:12:57.469Z,99517.30
2023-04-08T22:16:11.223Z,99525.85
2023-04-08T22:19:23.238Z,99516.17
2023-04-08T22:22:35.520Z,99516.84
2023-04-08T22:25:47.728Z,99525.69
2023-04-08T22:28:59.714Z,99523.98
2023-04-08T22:32:12.435Z,99524.93
2023-04-08T22:35:24.715Z,99520.33
2023-04-08T22:38:36.938Z,99513.45
2023-04-08T22:41:48.927Z,99516.27
2023-04-08T22:45:01.236Z,99517.39
2023-04-08T22:48:13.793Z,99513.55
2023-04-08T22:51:25.753Z,99515.91
2023-04-08T22:54:37.854Z,99524.53
2023-04-08T22:57:49.947Z,99521.91
2023-04-08T23:01:03.397Z,99516.47
2023-04-08T23:04:15.586Z,99520.78
2023-04-08T23:07:27.700Z,99519.77
2023-04-08T23:10:39.792Z,99513.58
2023-04-08T23:13:51.810Z,99517.89
2023-04-08T23:17:05.092Z,99518.35
2023-04-08T23:20:19.182Z,99520.42
2023-04-08T23:23:32.139Z,99513.14
2023-04-08T23:26:44.145Z,99513.31
2023-04-08T23:29:56.164Z,99518.31
2023-04-08T23:33:08.108Z,99508.28
2023-04-08T23:36:20.423Z,99512.69
2023-04-08T23:39:32.466Z,99511.77
2023-04-08T23:42:44.535Z,99504.79
2023-04-08T23:45:56.432Z,99507.03
2023-04-08T23:49:08.393Z,99491.20
2023-04-08T23:52:20.425Z,99510.02
2023-04-08T23:55:32.709Z,99498.17
2023-04-08T23:58:44.589Z,99511.38
